Time;durP1;ratioP1;P1;durP2;ratioP2;P2;SDS_P1;SDS_P2;PMS_P1;PMS_P2;Temp;Humidity;BMP_temperature;BMP_pressure;BME280_temperature;BME280_humidity;BME280_pressure;Samples;Min_cycle;Max_cycle;Signal;HPM_P1;HPM_P2
2021/06/28 02:46:20;;;;;;;13.00;7.40;;;20.60;83.80;;;;;;5161105;24;20057;-73
2021/06/28 02:48:46;;;;;;;9.13;7.10;;;20.70;83.60;;;;;;4714343;30;20044;-73
2021/06/28 02:51:13;;;;;;;10.95;7.40;;;20.70;83.30;;;;;;4713888;30;20100;-73
2021/06/28 02:53:40;;;;;;;10.05;6.82;;;20.80;83.10;;;;;;4722636;30;20024;-73
2021/06/28 02:56:17;;;;;;;11.65;8.32;;;20.80;82.80;;;;;;4706784;30;20100;-73
2021/06/28 02:58:51;;;;;;;9.90;7.47;;;20.80;83.00;;;;;;4718263;30;20085;-73
2021/06/28 03:01:19;;;;;;;9.75;7.88;;;20.80;83.20;;;;;;4723808;30;20108;-73
2021/06/28 03:03:45;;;;;;;9.77;7.22;;;20.80;83.40;;;;;;4722536;30;20063;-73
2021/06/28 03:06:12;;;;;;;13.40;7.93;;;20.70;83.70;;;;;;4718243;30;20086;-73
2021/06/28 03:08:38;;;;;;;9.07;7.43;;;20.70;84.10;;;;;;4712431;30;20037;-73
2021/06/28 03:11:04;;;;;;;7.90;7.10;;;20.70;84.20;;;;;;4719826;30;20197;-73
2021/06/28 03:13:32;;;;;;;8.45;6.70;;;20.70;84.40;;;;;;4722519;30;20037;-73
2021/06/28 03:15:58;;;;;;;10.98;7.90;;;20.70;84.40;;;;;;4721656;30;20029;-73
2021/06/28 03:18:24;;;;;;;9.43;7.72;;;20.70;84.80;;;;;;4722014;30;20033;-73
2021/06/28 03:20:51;;;;;;;11.20;7.65;;;20.70;84.80;;;;;;4714743;30;20144;-73
2021/06/28 03:23:17;;;;;;;9.23;7.32;;;20.70;84.80;;;;;;4712417;30;20034;-73
2021/06/28 03:25:43;;;;;;;10.80;7.10;;;20.80;84.30;;;;;;4721893;30;20044;-73
2021/06/28 03:28:09;;;;;;;12.75;8.35;;;20.80;84.20;;;;;;4721121;30;20032;-73
2021/06/28 03:30:35;;;;;;;9.80;8.27;;;20.90;84.00;;;;;;4723810;30;20037;-73
2021/06/28 03:33:01;;;;;;;10.77;7.72;;;20.90;83.90;;;;;;4710746;30;20092;-73
2021/06/28 03:35:26;;;;;;;10.75;8.10;;;21.00;83.80;;;;;;4720808;30;20025;-73
2021/06/28 03:37:52;;;;;;;9.48;8.02;;;21.00;83.90;;;;;;4721795;30;20025;-73
2021/06/28 03:40:18;;;;;;;14.15;7.82;;;21.10;84.10;;;;;;4726083;30;20240;-75
2021/06/28 03:42:44;;;;;;;11.60;7.97;;;21.20;83.90;;;;;;4714772;30;20069;-72
2021/06/28 03:45:12;;;;;;;15.30;9.10;;;21.20;83.70;;;;;;4705977;30;20056;-75
2021/06/28 03:47:39;;;;;;;11.65;8.95;;;21.20;84.00;;;;;;4704857;30;20111;-76
2021/06/28 03:50:08;;;;;;;12.23;8.10;;;21.20;83.70;;;;;;4721460;30;20359;-75
2021/06/28 03:52:34;;;;;;;14.60;9.43;;;21.30;83.50;;;;;;4714658;30;20309;-75
2021/06/28 03:55:00;;;;;;;11.45;8.70;;;21.40;83.10;;;;;;4707813;30;20148;-75
2021/06/28 03:57:26;;;;;;;14.27;9.35;;;21.40;82.90;;;;;;4715957;30;20041;-75
2021/06/28 03:59:52;;;;;;;9.55;7.43;;;21.50;82.70;;;;;;4718380;30;20266;-75
2021/06/28 04:02:18;;;;;;;12.43;8.43;;;21.60;82.20;;;;;;4718129;30;20130;-76
2021/06/28 04:04:48;;;;;;;14.15;8.68;;;21.70;82.10;;;;;;4712037;30;20075;-73
2021/06/28 04:07:16;;;;;;;20.20;9.48;;;21.80;81.60;;;;;;4726152;30;20037;-73
2021/06/28 04:09:42;;;;;;;14.75;8.45;;;21.80;81.40;;;;;;4712483;30;20033;-73
2021/06/28 04:12:10;;;;;;;12.98;7.53;;;21.80;81.30;;;;;;4717398;30;20157;-73
2021/06/28 04:14:37;;;;;;;12.27;7.80;;;21.90;80.90;;;;;;4703265;30;20341;-73
2021/06/28 04:17:03;;;;;;;;;;;22.00;80.90;;;;;;4712883;30;20041;-73
2021/06/28 04:19:29;;;;;;;16.15;7.25;;;22.10;80.10;;;;;;4703102;30;20119;-73
2021/06/28 04:21:54;;;;;;;10.35;7.70;;;22.20;79.50;;;;;;4709958;30;20026;-73
2021/06/28 04:24:20;;;;;;;20.65;8.40;;;22.30;79.10;;;;;;4693453;30;20310;-73
2021/06/28 04:26:46;;;;;;;13.93;7.70;;;22.40;79.00;;;;;;4708714;30;20213;-73
2021/06/28 04:29:12;;;;;;;11.07;7.43;;;22.50;79.00;;;;;;4709735;30;20052;-73
2021/06/28 04:31:37;;;;;;;17.98;7.82;;;22.50;78.40;;;;;;4714965;30;20216;-74
2021/06/28 04:34:04;;;;;;;14.13;7.82;;;22.50;77.90;;;;;;4720713;30;20060;-74
2021/06/28 04:36:30;;;;;;;14.43;8.38;;;22.60;77.80;;;;;;4725441;30;20291;-73
2021/06/28 04:38:55;;;;;;;15.32;7.88;;;22.70;77.60;;;;;;4720661;30;20083;-73
2021/06/28 04:41:21;;;;;;;20.40;8.85;;;22.70;76.80;;;;;;4713991;30;20324;-73
2021/06/28 04:43:47;;;;;;;15.18;7.50;;;22.80;76.80;;;;;;4726556;30;20169;-73
2021/06/28 04:46:13;;;;;;;16.27;9.13;;;22.90;76.80;;;;;;4696994;30;20060;-73
2021/06/28 04:48:39;;;;;;;16.13;8.43;;;23.00;76.30;;;;;;4710302;30;20105;-73
2021/06/28 04:51:05;;;;;;;20.92;8.13;;;23.00;75.80;;;;;;4711281;30;20305;-74
2021/06/28 04:53:31;;;;;;;16.67;8.85;;;23.10;75.90;;;;;;4710728;30;20026;-73
2021/06/28 04:55:57;;;;;;;9.25;7.70;;;23.10;75.70;;;;;;4708239;30;20169;-73
2021/06/28 04:58:23;;;;;;;10.32;7.53;;;23.20;75.10;;;;;;4711917;30;20021;-73
2021/06/28 05:00:48;;;;;;;9.52;7.45;;;23.20;74.70;;;;;;4709432;30;20108;-73
2021/06/28 05:03:14;;;;;;;13.93;8.52;;;23.40;74.20;;;;;;4696220;30;20033;-76
2021/06/28 05:05:40;;;;;;;24.08;8.40;;;23.40;74.80;;;;;;4717988;30;20044;-77
2021/06/28 05:08:06;;;;;;;11.55;7.10;;;23.50;75.20;;;;;;4711594;30;20034;-76
2021/06/28 05:10:32;;;;;;;14.75;7.97;;;23.50;74.40;;;;;;4702310;30;20218;-76
2021/06/28 05:12:58;;;;;;;15.68;7.80;;;23.60;73.70;;;;;;4706205;30;20037;-76
2021/06/28 05:15:23;;;;;;;21.20;8.13;;;23.60;74.00;;;;;;4703435;30;20026;-76
2021/06/28 05:17:49;;;;;;;9.48;6.90;;;24.00;74.00;;;;;;4715870;30;20320;-76
2021/06/28 05:20:15;;;;;;;8.10;6.50;;;24.70;70.60;;;;;;4718139;30;20048;-76
2021/06/28 05:22:42;;;;;;;19.55;6.97;;;25.80;68.00;;;;;;4697102;30;20048;-77
2021/06/28 05:25:09;;;;;;;;;;;27.10;65.20;;;;;;4716792;30;20350;-76
2021/06/28 05:27:35;;;;;;;12.57;6.53;;;27.90;61.10;;;;;;4711563;30;19918;-77
2021/06/28 05:30:07;;;;;;;15.93;6.67;;;28.70;59.30;;;;;;4706527;30;20045;-76
2021/06/28 05:32:33;;;;;;;18.33;6.10;;;29.60;56.70;;;;;;4717689;30;20029;-77
2021/06/28 05:34:59;;;;;;;11.77;6.38;;;30.30;53.50;;;;;;4721252;30;20056;-78
2021/06/28 05:37:25;;;;;;;18.83;5.53;;;30.90;52.80;;;;;;4717228;30;20044;-77
2021/06/28 05:39:51;;;;;;;16.03;6.10;;;31.40;51.90;;;;;;4706638;30;20317;-76
2021/06/28 05:42:17;;;;;;;11.57;6.97;;;31.90;49.90;;;;;;4718411;30;20057;-77
2021/06/28 05:44:43;;;;;;;13.60;5.40;;;32.30;48.70;;;;;;4701447;30;20033;-77
2021/06/28 05:47:11;;;;;;;20.37;5.83;;;32.50;48.10;;;;;;4713700;30;20053;-77
2021/06/28 05:49:38;;;;;;;11.88;6.47;;;32.50;48.40;;;;;;4705088;30;20037;-77
2021/06/28 05:52:05;;;;;;;12.40;5.57;;;32.60;47.60;;;;;;4703549;30;20025;-78
2021/06/28 05:54:31;;;;;;;17.63;6.65;;;32.70;47.40;;;;;;4710245;30;20063;-76
2021/06/28 05:56:57;;;;;;;10.65;4.90;;;32.80;47.60;;;;;;4715494;30;20040;-77
2021/06/28 05:59:23;;;;;;;9.27;5.55;;;32.80;46.50;;;;;;4696767;30;20041;-77
2021/06/28 06:01:48;;;;;;;8.50;4.57;;;32.50;46.50;;;;;;4709708;30;20037;-77
2021/06/28 06:04:14;;;;;;;15.33;6.00;;;32.40;47.30;;;;;;4720661;30;20070;-77
2021/06/28 06:06:41;;;;;;;11.37;5.40;;;32.10;47.00;;;;;;4707767;30;20030;-77
2021/06/28 06:09:07;;;;;;;;;;;31.70;49.00;;;;;;4707102;30;20029;-77
2021/06/28 06:11:33;;;;;;;5.78;4.57;;;31.70;48.70;;;;;;4704791;30;19962;-77
2021/06/28 06:13:59;;;;;;;8.13;5.43;;;31.40;48.50;;;;;;4687832;30;20101;-77
2021/06/28 06:16:25;;;;;;;7.32;5.25;;;31.30;49.40;;;;;;4715171;30;20033;-77
2021/06/28 06:18:53;;;;;;;5.70;4.57;;;31.10;49.60;;;;;;4707246;30;20025;-78
2021/06/28 06:21:23;;;;;;;10.27;5.35;;;31.10;50.40;;;;;;4709022;30;20037;-80
2021/06/28 06:23:50;;;;;;;8.27;4.75;;;31.10;50.90;;;;;;4724149;30;20033;-80
2021/06/28 06:26:17;;;;;;;13.68;4.80;;;31.20;51.20;;;;;;4713423;30;20038;-80
2021/06/28 06:28:43;;;;;;;6.88;4.75;;;31.50;49.70;;;;;;4720857;30;20037;-79
2021/06/28 06:31:09;;;;;;;6.65;4.80;;;31.80;49.70;;;;;;4691516;30;20100;-78
2021/06/28 06:33:35;;;;;;;5.87;4.13;;;31.80;49.20;;;;;;4719239;30;20037;-78
2021/06/28 06:36:01;;;;;;;4.73;4.23;;;31.70;49.40;;;;;;4699872;30;20033;-77
2021/06/28 06:38:27;;;;;;;5.03;4.53;;;31.80;50.30;;;;;;4718182;30;20037;-78
2021/06/28 06:40:53;;;;;;;5.67;4.40;;;31.60;49.20;;;;;;4695681;30;20042;-78
2021/06/28 06:43:19;;;;;;;11.37;5.30;;;31.50;49.10;;;;;;4726448;30;20029;-78
2021/06/28 06:45:45;;;;;;;5.43;4.93;;;30.80;48.20;;;;;;4704877;30;20132;-78
2021/06/28 06:48:12;;;;;;;15.02;5.80;;;30.20;50.50;;;;;;4708257;30;20033;-78
2021/06/28 06:50:38;;;;;;;7.82;4.50;;;30.00;53.00;;;;;;4713187;30;20105;-78
2021/06/28 06:53:04;;;;;;;8.23;4.93;;;30.00;52.00;;;;;;4718542;30;20025;-81
2021/06/28 06:55:30;;;;;;;7.77;4.97;;;30.00;52.10;;;;;;4699651;30;20109;-81
2021/06/28 06:58:00;;;;;;;7.80;4.70;;;30.00;52.20;;;;;;4713468;30;20032;-85
2021/06/28 07:00:26;;;;;;;6.35;4.43;;;30.00;52.20;;;;;;4722994;30;20046;-83
2021/06/28 07:02:52;;;;;;;8.23;5.43;;;30.20;53.50;;;;;;4728963;30;20048;-83
2021/06/28 07:05:18;;;;;;;8.25;4.78;;;30.50;52.00;;;;;;4732098;30;20037;-80
2021/06/28 07:07:44;;;;;;;9.70;5.23;;;30.40;51.80;;;;;;4730239;30;20089;-80
2021/06/28 07:10:12;;;;;;;9.40;5.30;;;30.20;52.70;;;;;;4714300;30;20037;-80
2021/06/28 07:12:39;;;;;;;9.75;5.30;;;30.10;51.20;;;;;;4716749;30;20271;-81
2021/06/28 07:15:06;;;;;;;7.40;4.82;;;29.90;52.10;;;;;;4715629;30;20041;-80
2021/06/28 07:17:32;;;;;;;7.25;5.22;;;29.80;52.60;;;;;;4726010;30;20064;-80
2021/06/28 07:19:58;;;;;;;5.67;4.63;;;29.90;51.20;;;;;;4727466;30;20036;-81
2021/06/28 07:22:24;;;;;;;9.90;4.93;;;29.70;51.50;;;;;;4722110;30;20037;-80
2021/06/28 07:24:50;;;;;;;6.23;4.03;;;29.50;52.50;;;;;;4733723;30;20036;-80
2021/06/28 07:27:16;;;;;;;17.70;5.68;;;29.30;53.70;;;;;;4720661;30;20025;-81
2021/06/28 07:29:42;;;;;;;9.87;4.67;;;29.20;53.40;;;;;;4722465;30;20044;-81
2021/06/28 07:32:08;;;;;;;10.23;5.93;;;29.10;55.80;;;;;;4716295;30;20030;-81
2021/06/28 07:34:34;;;;;;;8.97;5.23;;;29.30;55.10;;;;;;4702493;30;20057;-81
2021/06/28 07:37:01;;;;;;;9.10;5.18;;;29.50;54.10;;;;;;4716707;30;20501;-81
2021/06/28 07:39:27;;;;;;;8.52;4.75;;;29.60;52.40;;;;;;4697193;30;20041;-81
2021/06/28 07:41:53;;;;;;;13.27;5.13;;;29.50;55.10;;;;;;4719277;30;20030;-82
2021/06/28 07:44:22;;;;;;;9.18;5.10;;;29.90;53.70;;;;;;4714778;30;20210;-81
2021/06/28 07:46:48;;;;;;;11.52;5.65;;;29.80;52.70;;;;;;4714666;30;20057;-81
2021/06/28 07:49:14;;;;;;;6.80;4.70;;;29.90;52.50;;;;;;4703900;30;20045;-81
2021/06/28 07:51:40;;;;;;;8.60;4.32;;;29.70;52.30;;;;;;4702774;30;20041;-81
2021/06/28 07:54:08;;;;;;;8.87;5.10;;;29.60;54.10;;;;;;4707093;30;20044;-81
2021/06/28 07:56:34;;;;;;;7.65;4.93;;;29.70;53.10;;;;;;4734575;30;20287;-81
2021/06/28 07:59:01;;;;;;;13.77;5.13;;;29.50;53.50;;;;;;4713994;30;20033;-81
2021/06/28 08:01:28;;;;;;;9.50;4.50;;;29.80;55.60;;;;;;4709382;30;20033;-78
2021/06/28 08:03:55;;;;;;;6.95;4.57;;;30.20;53.90;;;;;;4711096;30;20068;-78
2021/06/28 08:06:21;;;;;;;9.68;4.63;;;30.60;53.10;;;;;;4723489;30;20033;-79
2021/06/28 08:08:50;;;;;;;10.40;5.03;;;30.70;53.60;;;;;;4715130;30;20033;-79
2021/06/28 08:11:18;;;;;;;12.93;4.53;;;30.60;51.60;;;;;;4701260;30;20247;-78
2021/06/28 08:13:46;;;;;;;7.78;4.15;;;30.60;54.30;;;;;;4718302;30;20061;-79
2021/06/28 08:16:13;;;;;;;12.70;4.93;;;30.80;54.30;;;;;;4712799;30;20029;-78
2021/06/28 08:18:41;;;;;;;10.18;5.05;;;31.00;52.40;;;;;;4715148;30;20025;-79
2021/06/28 08:21:07;;;;;;;10.43;5.30;;;31.10;51.00;;;;;;4717682;30;20033;-79
2021/06/28 08:23:33;;;;;;;11.23;5.00;;;30.80;53.10;;;;;;4711916;30;20137;-79
2021/06/28 08:25:59;;;;;;;14.53;4.73;;;30.70;53.40;;;;;;4709917;30;20029;-79
2021/06/28 08:28:25;;;;;;;7.10;5.22;;;30.70;53.10;;;;;;4706686;30;20052;-79
2021/06/28 08:30:52;;;;;;;12.53;4.77;;;30.50;52.50;;;;;;4699968;30;20037;-79
2021/06/28 08:33:17;;;;;;;7.55;4.45;;;30.50;54.50;;;;;;4719075;30;20040;-79
2021/06/28 08:35:44;;;;;;;8.67;4.70;;;30.70;53.00;;;;;;4721909;30;20037;-79
2021/06/28 08:38:10;;;;;;;11.73;4.85;;;30.90;53.60;;;;;;4726082;30;20056;-79
2021/06/28 08:40:37;;;;;;;15.30;5.38;;;30.80;52.90;;;;;;4699635;30;20033;-79
2021/06/28 08:43:08;;;;;;;17.58;5.10;;;30.90;53.20;;;;;;4721776;30;20037;-79
2021/06/28 08:45:39;;;;;;;9.40;5.07;;;30.80;52.70;;;;;;4715221;30;20061;-78
2021/06/28 08:48:07;;;;;;;7.30;5.28;;;30.80;54.40;;;;;;4707031;30;20045;-79
2021/06/28 08:50:35;;;;;;;10.95;5.07;;;30.90;52.60;;;;;;4713749;30;20049;-79
2021/06/28 08:53:01;;;;;;;8.23;4.88;;;31.00;53.70;;;;;;4715198;30;20037;-79
2021/06/28 08:55:27;;;;;;;10.20;4.88;;;31.10;53.00;;;;;;4719209;30;20060;-79
2021/06/28 08:57:53;;;;;;;13.05;5.07;;;31.20;52.70;;;;;;4720574;30;20045;-79
2021/06/28 09:00:20;;;;;;;7.10;5.10;;;31.20;55.00;;;;;;4726857;30;20029;-79
2021/06/28 09:02:54;;;;;;;19.45;6.28;;;31.20;54.90;;;;;;4722446;30;20072;-79
2021/06/28 09:05:20;;;;;;;13.32;5.72;;;31.30;53.20;;;;;;4716470;30;20053;-79
2021/06/28 09:07:46;;;;;;;17.10;5.10;;;31.40;53.90;;;;;;4706515;30;20056;-80
2021/06/28 09:10:32;;;;;;;14.20;5.33;;;31.40;52.80;;;;;;4707556;30;20037;-79
2021/06/28 09:12:58;;;;;;;9.40;5.15;;;31.20;51.80;;;;;;4720664;30;20036;-79
2021/06/28 09:15:48;;;;;;;11.43;5.47;;;31.10;53.40;;;;;;4726270;30;20033;-80
2021/06/28 09:18:21;;;;;;;11.32;5.32;;;30.90;53.10;;;;;;4717657;30;20058;-80
2021/06/28 09:20:48;;;;;;;10.93;4.72;;;30.90;53.20;;;;;;4700867;30;20045;-79
2021/06/28 09:23:26;;;;;;;12.45;5.25;;;31.00;53.20;;;;;;4720581;30;20025;-80
2021/06/28 09:25:57;;;;;;;12.80;5.10;;;31.10;52.20;;;;;;4712112;30;20068;-79
2021/06/28 09:28:35;;;;;;;11.85;5.22;;;30.90;51.60;;;;;;4718493;30;20042;-79
2021/06/28 09:31:01;;;;;;;8.40;4.38;;;30.90;53.80;;;;;;4706328;30;20045;-79
2021/06/28 09:33:26;;;;;;;10.70;4.73;;;31.10;52.90;;;;;;4702117;30;20045;-80
2021/06/28 09:35:52;;;;;;;11.53;4.37;;;31.40;54.80;;;;;;4726000;30;20094;-80
2021/06/28 09:38:31;;;;;;;9.10;4.60;;;31.60;52.50;;;;;;4724167;30;20071;-80
2021/06/28 09:41:26;;;;;;;10.73;4.68;;;31.70;52.50;;;;;;4725694;30;20044;-80
2021/06/28 09:43:58;;;;;;;12.85;4.78;;;31.90;52.20;;;;;;4705394;30;20041;-80
2021/06/28 09:46:24;;;;;;;14.20;4.93;;;32.10;52.00;;;;;;4711508;30;20050;-80
2021/06/28 09:48:53;;;;;;;11.83;4.60;;;32.40;51.90;;;;;;4730376;30;20060;-80
2021/06/28 09:51:31;;;;;;;6.72;4.15;;;32.40;49.90;;;;;;4725020;30;20041;-80
2021/06/28 09:54:07;;;;;;;10.55;3.70;;;32.30;51.70;;;;;;4724251;30;20061;-80
2021/06/28 09:56:47;;;;;;;12.27;4.50;;;32.30;50.80;;;;;;4714826;30;20328;-80
2021/06/28 09:59:35;;;;;;;11.88;4.10;;;32.40;49.20;;;;;;4706583;30;20389;-80
2021/06/28 10:02:25;;;;;;;7.85;4.13;;;32.30;51.60;;;;;;4728286;30;20049;-79
2021/06/28 10:07:51;;;;;;;18.27;4.88;;;32.50;51.60;;;;;;4672778;30;20073;-79
2021/06/28 10:10:28;;;;;;;9.83;4.40;;;32.50;50.00;;;;;;4680285;30;20050;-79
2021/06/28 10:12:57;;;;;;;9.68;3.83;;;32.50;49.00;;;;;;4667799;30;20062;-79
2021/06/28 10:15:25;;;;;;;5.82;3.90;;;32.30;49.40;;;;;;4666640;30;20031;-79
2021/06/28 10:17:51;;;;;;;9.45;4.38;;;32.50;50.50;;;;;;4671415;30;20050;-79
2021/06/28 10:20:21;;;;;;;13.70;5.15;;;32.80;50.00;;;;;;4671629;30;20072;-80
2021/06/28 10:22:48;;;;;;;8.23;3.88;;;32.90;50.10;;;;;;4682300;30;20030;-79
2021/06/28 10:25:17;;;;;;;7.82;4.07;;;33.00;50.90;;;;;;4666145;30;20057;-83
2021/06/28 10:27:43;;;;;;;7.47;3.95;;;33.20;49.10;;;;;;4665356;30;20318;-81
2021/06/28 10:30:13;;;;;;;6.70;4.00;;;33.20;51.20;;;;;;4674164;30;20047;-81
2021/06/28 10:32:40;;;;;;;6.82;4.10;;;33.30;49.50;;;;;;4665459;30;20035;-81
2021/06/28 10:35:10;;;;;;;12.10;4.45;;;33.30;48.80;;;;;;4668802;30;20058;-81
2021/06/28 10:37:37;;;;;;;16.55;4.20;;;33.30;48.10;;;;;;4665504;30;20061;-81
2021/06/28 10:40:10;;;;;;;8.23;4.20;;;33.20;48.90;;;;;;4673990;30;20034;-81
2021/06/28 10:42:48;;;;;;;8.02;4.47;;;33.10;49.80;;;;;;4677062;30;20116;-81
2021/06/28 10:45:17;;;;;;;7.45;4.00;;;33.30;47.70;;;;;;4717219;30;20033;-81
2021/06/28 10:48:18;;;;;;;11.60;4.15;;;33.40;49.30;;;;;;4709990;30;20041;-80
2021/06/28 10:51:06;;;;;;;9.00;3.78;;;33.50;50.30;;;;;;4710491;30;20330;-81
2021/06/28 10:53:31;;;;;;;6.70;4.15;;;33.40;49.20;;;;;;4720110;30;20063;-80
2021/06/28 10:56:33;;;;;;;9.80;3.50;;;33.50;48.20;;;;;;4705594;30;20033;-81
2021/06/28 10:58:59;;;;;;;7.18;3.67;;;33.60;48.80;;;;;;4683821;30;20030;-81
2021/06/28 11:01:35;;;;;;;9.40;3.87;;;33.60;46.70;;;;;;4711742;30;20048;-80
2021/06/28 11:04:10;;;;;;;12.07;3.45;;;33.30;47.20;;;;;;4727035;30;20040;-80
2021/06/28 11:06:37;;;;;;;7.18;3.47;;;33.20;49.40;;;;;;4718183;30;20044;-81
2021/06/28 11:09:10;;;;;;;7.57;3.47;;;33.50;48.80;;;;;;4704569;30;20061;-81
2021/06/28 11:11:45;;;;;;;15.30;3.75;;;33.80;46.50;;;;;;4716894;30;20064;-81
2021/06/28 11:14:31;;;;;;;7.18;3.97;;;34.30;46.70;;;;;;4714511;30;20028;-82
2021/06/28 11:16:57;;;;;;;11.73;4.03;;;34.00;45.90;;;;;;4647693;30;20042;-81
2021/06/28 11:19:54;;;;;;;9.33;3.63;;;34.10;50.90;;;;;;4665432;30;20093;-81
2021/06/28 11:22:30;;;;;;;9.70;3.58;;;34.20;50.70;;;;;;4665489;30;20053;-82
2021/06/28 11:25:08;;;;;;;7.27;3.20;;;34.30;46.10;;;;;;4659927;30;20441;-82
2021/06/28 11:27:42;;;;;;;6.53;3.40;;;34.20;48.30;;;;;;4662101;30;20046;-82
2021/06/28 11:30:14;;;;;;;9.95;3.35;;;34.10;45.70;;;;;;4679961;30;20042;-82
2021/06/28 11:33:01;;;;;;;7.00;3.70;;;33.90;46.00;;;;;;4653943;30;20046;-82
2021/06/28 11:35:53;;;;;;;6.90;3.08;;;34.10;47.30;;;;;;4679151;30;20113;-82
2021/06/28 11:38:27;;;;;;;7.72;3.53;;;34.50;46.90;;;;;;4612118;31;20567;-82
2021/06/28 11:41:10;;;;;;;9.63;3.47;;;34.70;45.70;;;;;;4612056;31;20056;-81
2021/06/28 11:43:46;;;;;;;5.85;3.17;;;34.60;47.40;;;;;;4614270;31;20048;-82
2021/06/28 11:46:31;;;;;;;8.13;3.28;;;34.50;45.30;;;;;;4624297;31;20264;-82
2021/06/28 11:49:07;;;;;;;9.57;3.22;;;34.40;47.40;;;;;;4627696;31;20055;-82
2021/06/28 11:51:45;;;;;;;3.95;3.40;;;34.40;47.40;;;;;;4627644;31;20111;-81
2021/06/28 11:54:16;;;;;;;9.23;3.58;;;34.60;46.20;;;;;;4647568;30;20043;-82
2021/06/28 11:56:47;;;;;;;9.85;3.47;;;34.90;45.50;;;;;;4665378;30;20334;-82
2021/06/28 11:59:14;;;;;;;8.15;2.80;;;35.10;45.10;;;;;;4673233;30;20050;-82
2021/06/28 12:01:53;;;;;;;6.50;3.10;;;35.10;45.30;;;;;;4654664;30;20051;-81
2021/06/28 12:04:27;;;;;;;5.47;3.20;;;35.10;46.80;;;;;;4651817;30;20041;-82
2021/06/28 12:06:55;;;;;;;11.38;3.00;;;35.00;43.90;;;;;;4667333;30;20067;-82
2021/06/28 12:09:26;;;;;;;6.45;3.10;;;34.70;45.10;;;;;;4652819;30;20095;-81
2021/06/28 12:12:13;;;;;;;5.35;2.92;;;34.60;45.80;;;;;;4657911;30;20030;-82
2021/06/28 12:14:53;;;;;;;8.13;2.75;;;34.50;46.40;;;;;;4659906;30;20046;-82
2021/06/28 12:17:29;;;;;;;4.93;2.90;;;34.60;45.40;;;;;;4714759;30;20144;-82
2021/06/28 12:20:07;;;;;;;4.37;2.47;;;34.90;46.40;;;;;;4731101;30;20044;-82
2021/06/28 12:22:38;;;;;;;4.05;2.83;;;35.20;45.10;;;;;;4730543;30;20025;-82
2021/06/28 12:25:09;;;;;;;5.68;2.58;;;35.30;42.60;;;;;;4714242;30;20171;-82
2021/06/28 12:27:41;;;;;;;5.50;2.30;;;35.30;46.20;;;;;;4704325;30;20221;-83
2021/06/28 12:30:10;;;;;;;4.82;2.40;;;35.40;44.40;;;;;;4714160;30;20041;-83
2021/06/28 12:32:44;;;;;;;6.50;2.50;;;35.60;43.40;;;;;;4705841;30;20025;-82
2021/06/28 12:35:13;;;;;;;4.13;2.67;;;35.50;44.20;;;;;;4710850;30;20229;-83
2021/06/28 12:37:43;;;;;;;5.63;2.28;;;35.50;43.20;;;;;;4724921;30;20316;-83
2021/06/28 12:40:33;;;;;;;11.57;2.55;;;35.40;44.10;;;;;;4723804;30;20100;-83
2021/06/28 12:43:01;;;;;;;3.80;2.40;;;35.30;41.50;;;;;;4710122;30;20108;-83
2021/06/28 12:45:36;;;;;;;8.52;3.67;;;35.00;42.00;;;;;;4725685;30;20068;-82
2021/06/28 12:48:07;;;;;;;7.18;2.95;;;35.00;44.20;;;;;;4719806;30;20065;-82
2021/06/28 12:50:38;;;;;;;5.47;3.22;;;35.10;42.00;;;;;;4704703;30;20041;-82
2021/06/28 12:53:15;;;;;;;5.60;2.22;;;34.90;41.70;;;;;;4715601;30;20107;-82
2021/06/28 12:55:43;;;;;;;6.18;2.55;;;35.00;41.80;;;;;;4703758;30;20052;-82
2021/06/28 12:58:13;;;;;;;3.97;2.50;;;35.20;42.50;;;;;;4704972;30;20034;-82
2021/06/28 13:00:47;;;;;;;4.43;2.28;;;35.30;44.00;;;;;;4715284;30;20355;-82
2021/06/28 13:03:24;;;;;;;5.05;2.55;;;35.50;43.70;;;;;;4700213;30;20046;-83
2021/06/28 13:05:52;;;;;;;9.38;2.10;;;35.80;43.60;;;;;;4693887;30;20116;-82
2021/06/28 13:08:30;;;;;;;5.43;2.50;;;35.90;42.70;;;;;;4695773;30;20037;-82
2021/06/28 13:11:17;;;;;;;12.00;2.50;;;36.00;42.30;;;;;;4698997;30;20037;-81
2021/06/28 13:13:46;;;;;;;6.40;2.60;;;36.00;41.50;;;;;;4720234;30;20041;-82
2021/06/28 13:19:16;;;;;;;5.45;2.50;;;36.30;42.50;;;;;;4715923;30;20080;-83
2021/06/28 13:21:52;;;;;;;3.60;1.98;;;36.10;40.50;;;;;;4722042;30;20313;-83
2021/06/28 13:24:20;;;;;;;5.63;2.45;;;35.60;40.70;;;;;;4707383;30;20032;-83
2021/06/28 13:26:48;;;;;;;2.47;2.20;;;35.50;41.20;;;;;;4727823;30;20037;-83
2021/06/28 13:29:18;;;;;;;6.70;2.63;;;35.40;44.10;;;;;;4704527;30;20037;-83
2021/06/28 13:31:53;;;;;;;6.70;3.17;;;35.60;42.50;;;;;;4697931;30;20044;-84
2021/06/28 13:34:20;;;;;;;4.80;2.22;;;35.70;41.00;;;;;;4713393;30;20029;-83
2021/06/28 13:37:08;;;;;;;5.53;2.45;;;36.00;44.10;;;;;;4697634;30;20317;-82
2021/06/28 13:39:35;;;;;;;6.95;2.53;;;36.20;42.70;;;;;;4713439;30;20025;-83
2021/06/28 13:42:00;;;;;;;11.00;2.50;;;36.10;42.00;;;;;;4732176;30;20033;-84
2021/06/28 13:44:26;;;;;;;10.50;1.90;;;36.10;41.10;;;;;;4702462;30;20080;-83
2021/06/28 13:46:52;;;;;;;3.73;2.40;;;36.00;41.30;;;;;;4702258;30;20121;-84
2021/06/28 13:49:25;;;;;;;6.30;2.50;;;36.10;40.50;;;;;;4714888;30;20033;-83
2021/06/28 13:51:57;;;;;;;3.58;2.17;;;36.20;42.90;;;;;;4712253;30;20609;-84
2021/06/28 13:54:23;;;;;;;5.53;1.95;;;36.40;40.80;;;;;;4733545;30;20037;-84
2021/06/28 13:56:49;;;;;;;8.45;1.95;;;36.50;41.30;;;;;;4711264;30;20071;-83
2021/06/28 13:59:15;;;;;;;;;;;36.60;41.50;;;;;;4728453;30;20039;-83
2021/06/28 14:01:41;;;;;;;8.43;2.30;;;36.60;40.70;;;;;;4733543;30;20180;-83
2021/06/28 14:04:07;;;;;;;11.30;2.43;;;36.70;40.50;;;;;;4721623;30;20095;-83
2021/06/28 14:06:33;;;;;;;2.43;1.80;;;36.50;39.50;;;;;;4702925;30;20272;-83
2021/06/28 14:08:58;;;;;;;8.93;2.30;;;36.30;38.60;;;;;;4713378;30;20042;-82
2021/06/28 14:11:24;;;;;;;6.83;1.93;;;36.00;41.60;;;;;;4711214;30;20063;-82
2021/06/28 14:13:50;;;;;;;7.63;2.17;;;36.20;41.10;;;;;;4707233;30;20513;-82
2021/06/28 14:16:16;;;;;;;7.57;2.00;;;36.40;41.00;;;;;;4702592;30;20030;-83
2021/06/28 14:18:42;;;;;;;2.15;1.55;;;36.40;41.20;;;;;;4720773;30;20423;-83
2021/06/28 14:21:08;;;;;;;6.27;2.23;;;36.50;39.40;;;;;;4718330;30;20030;-84
2021/06/28 14:23:33;;;;;;;4.83;2.57;;;36.30;40.40;;;;;;4715227;30;20284;-83
2021/06/28 14:25:59;;;;;;;3.15;2.10;;;36.30;39.80;;;;;;4710109;30;20034;-82
2021/06/28 14:28:25;;;;;;;6.33;2.07;;;36.20;40.60;;;;;;4703601;30;20103;-83
2021/06/28 14:30:51;;;;;;;6.63;2.30;;;36.20;39.80;;;;;;4704533;30;20029;-83
2021/06/28 14:33:17;;;;;;;4.80;2.03;;;36.30;41.20;;;;;;4701359;30;20029;-83
2021/06/28 14:35:43;;;;;;;7.20;1.98;;;36.30;42.00;;;;;;4726215;30;20038;-82
2021/06/28 14:38:08;;;;;;;3.75;1.38;;;36.50;39.80;;;;;;4701547;30;20084;-82
2021/06/28 14:40:34;;;;;;;4.67;2.13;;;36.40;38.90;;;;;;4709674;30;20044;-82
2021/06/28 14:43:00;;;;;;;4.20;1.50;;;36.40;42.20;;;;;;4726733;30;20037;-82
2021/06/28 14:45:26;;;;;;;5.63;1.65;;;36.50;40.20;;;;;;4709554;30;20052;-82
2021/06/28 14:47:52;;;;;;;4.20;1.48;;;36.70;39.50;;;;;;4723436;30;20025;-82
2021/06/28 14:50:18;;;;;;;4.95;1.88;;;36.70;38.90;;;;;;4711323;30;20044;-83
2021/06/28 14:52:44;;;;;;;2.28;1.80;;;36.50;37.50;;;;;;4701954;30;20026;-83
2021/06/28 14:55:10;;;;;;;3.75;1.92;;;36.50;38.10;;;;;;4729413;30;20032;-84
2021/06/28 14:57:37;;;;;;;4.13;1.80;;;36.40;39.70;;;;;;4720624;30;20057;-83
2021/06/28 15:00:07;;;;;;;2.22;1.88;;;36.40;38.40;;;;;;4700291;30;20075;-83
2021/06/28 15:02:33;;;;;;;2.35;1.85;;;36.50;39.80;;;;;;4710325;30;20337;-83
2021/06/28 15:05:00;;;;;;;3.28;2.05;;;36.60;39.30;;;;;;4702236;30;20066;-84
2021/06/28 15:07:25;;;;;;;;;;;36.70;39.80;;;;;;4703280;30;20042;-83
2021/06/28 15:09:54;;;;;;;;;;;36.70;38.80;;;;;;4712209;30;19950;-83
2021/06/28 15:12:20;;;;;;;2.67;1.70;;;36.70;37.80;;;;;;4711542;30;19933;-83
2021/06/28 15:14:45;;;;;;;2.17;1.55;;;36.60;37.50;;;;;;4713174;30;20333;-83
2021/06/28 15:17:15;;;;;;;5.83;1.70;;;36.60;40.10;;;;;;4723126;30;20048;-83
2021/06/28 15:19:41;;;;;;;4.30;2.10;;;36.80;40.60;;;;;;4720167;30;20037;-82
2021/06/28 15:22:07;;;;;;;6.15;1.70;;;37.00;38.40;;;;;;4714636;30;20079;-83
2021/06/28 15:24:37;;;;;;;7.80;2.00;;;37.10;40.10;;;;;;4729887;30;20041;-83
2021/06/28 15:27:03;;;;;;;3.97;1.60;;;37.10;38.30;;;;;;4713396;30;20041;-83
2021/06/28 15:29:30;;;;;;;;;;;37.10;37.60;;;;;;4705209;30;20044;-83
2021/06/28 15:31:56;;;;;;;3.90;1.92;;;36.90;38.80;;;;;;4720708;30;19922;-83
2021/06/28 15:34:22;;;;;;;6.90;1.67;;;36.80;38.20;;;;;;4701731;30;20093;-83
2021/06/28 15:36:48;;;;;;;4.30;2.10;;;36.70;38.00;;;;;;4719960;30;20131;-82
2021/06/28 15:39:14;;;;;;;5.97;1.67;;;36.60;38.20;;;;;;4715553;30;20287;-82
2021/06/28 15:41:40;;;;;;;5.60;1.90;;;36.60;38.40;;;;;;4719852;30;20041;-82
2021/06/28 15:44:05;;;;;;;6.70;2.00;;;36.60;38.30;;;;;;4726753;30;20029;-82
2021/06/28 15:46:31;;;;;;;4.72;1.73;;;36.50;37.30;;;;;;4718420;30;20061;-82